KCEZ/CEZ METAR and TAF weather

Enter ICAO airport designator
Station Type Date Time Source
KCEZ METAR 2018/07/20 13:53 UTC NOAA

KCEZ 201353Z AUTO 04008KT 10SM CLR 23/11 A3023 RMK AO2 SLP136 T02280106


Station Type Date Time Source
KCEZ Decoded METAR 2018/07/20 13:53 UTC NOAA

CORTEZ MONTEZUMA COUNTY AIRPORT , CO, United States (KCEZ) 37-18N 108-38W 1797M
Jul 20, 2018 - 09:53 AM EDT / 2018.07.20 1353 UTC
Wind: from the NE (040 degrees) at 9 MPH (8 KT):0
Visibility: 10 mile(s):0
Sky conditions: clear
Temperature: 73.0 F (22.8 C)
Dew Point: 51.1 F (10.6 C)
Relative Humidity: 46%
Pressure (altimeter): 30.23 in. Hg (1023 hPa)
ob: KCEZ 201353Z AUTO 04008KT 10SM CLR 23/11 A3023 RMK AO2 SLP136 T02280106
cycle: 14

Station Type Date Time Source
KCEZ TAF UTC NOAA

Error!


Example: see airport list